Detall de PIREP

Printer-friendly versionPDF version

[2013/02/24 07:58:00]
Flight IATA:CT1004
Pilot Number:012
Company ICAO:CAT
Aircraft Type:C750/F
PAX:4
Departing Airport: HESH
Destination Airport: LEBL
Alternate Airport:LEPA
Online: VATSIM
Route:CAT V603 SISIK UN697 MENLI UL677 CVO A1 METRU UL81 LORNO UM729 CDC UQ182 MALAV UM601 BALEN/N0437F290 UM601 VERSO
Flight Level:F510
No Slew and time accel
No pause
Crash detect
Detect pilot in Cockpit between each 30 and 45 minutes
07:58 Zero fuel Weight: 22943 Lbs, Fuel Weight: 8952 Lbs
07:58 VATSIM:HESH 240700Z 36017KT 6000 NSC 22/06 Q1021 NOSIG
07:58 VATSIM:LEBL 240730Z 31013KT 260V350 9999 FEW020 03/M06 Q1012 NOSIG
07:58 VOICE CATALONIAN / MWC 2013 BARCELONA CHARTER
08:00 Parking Brakes off
08:04 Take-off
08:04 Take off Weight: 31795 Lbs
08:04 Wind: 357º @ 014 Knots Heading: 037º
08:04 POS N27º 58´ 49´´ E034º 23´ 41´´
08:04 Gear Up: 156 Knots
08:04 Flaps:3 at 156 Knots
08:05 Flaps:2 at 167 Knots
08:05 Flaps:0 at 187 Knots
08:19 Wind:273º@086 Knots Heading: 301º Ground Speed: 412 Knots Altitude 44855 ft
08:22 TOC
08:22 Fuel Weight: 8136 Lb
08:34 Wind:268º@060 Knots Heading: 302º Ground Speed: 447 Knots Altitude 51312 ft
08:49 Wind:271º@061 Knots Heading: 285º Ground Speed: 441 Knots Altitude 51312 ft
09:04 Wind:263º@064 Knots Heading: 301º Ground Speed: 453 Knots Altitude 51312 ft
09:19 Wind:263º@064 Knots Heading: 299º Ground Speed: 453 Knots Altitude 51305 ft
09:34 Wind:256º@060 Knots Heading: 300º Ground Speed: 462 Knots Altitude 51154 ft
09:49 Wind:253º@062 Knots Heading: 299º Ground Speed: 465 Knots Altitude 51145 ft
10:04 Wind:242º@055 Knots Heading: 297º Ground Speed: 475 Knots Altitude 51053 ft
10:19 Wind:245º@054 Knots Heading: 298º Ground Speed: 476 Knots Altitude 50944 ft
10:34 Wind:239º@045 Knots Heading: 297º Ground Speed: 479 Knots Altitude 50813 ft
10:49 Wind:240º@039 Knots Heading: 289º Ground Speed: 478 Knots Altitude 50902 ft
11:04 Wind:250º@029 Knots Heading: 288º Ground Speed: 482 Knots Altitude 50849 ft
11:19 Wind:257º@023 Knots Heading: 281º Ground Speed: 484 Knots Altitude 50843 ft
11:25 TOD
11:25 Fuel Weight: 5180 Lb
11:34 Wind:276º@023 Knots Heading: 272º Ground Speed: 487 Knots Altitude 48822 ft
11:49 Wind:312º@051 Knots Heading: 282º Ground Speed: 331 Knots Altitude 22122 ft
12:04 Wind:310º@019 Knots Heading: 286º Ground Speed: 209 Knots Altitude 3540 ft
12:08 Flaps:2 at 176 Knots
12:08 Gear Down: 176 Knots
12:09 Flaps:3 at 167 Knots
12:09 Flaps:4 at 145 Knots
12:10 Flaps:5 at 163 Knots
12:11 TouchDown:Rate -323 ft/min Speed: 128 Knots
12:11 VATSIM:LEBL 241200Z 31015G26KT 260V330 9999 FEW030 10/M07 Q1011 NOSIG
12:12 Land
12:12 Wind:312º@014 Knots
12:12 Heading: 244º
12:12 Flight Duration: 04:08
12:12 Landing Weight: 27579 Lbs
12:12 POS N41º 17´ 51´´ E002º 04´ 46´´
12:13 Parking brakes on
12:13 Block to Block Duration: 04:13
12:13 Final Fuel: 4614 Lbls
12:13 Spent Fuel: 4338 Lbls
12:13 Flight Length: 1801 NM
12:13 TOD Land Length: 272 NM

Exportar CSV

Powered by Drupal - Modified by Danger4k